createdAt,value
2018-11-07T00:00:46.664Z,11.38
2018-11-07T00:01:46.666Z,11.20
2018-11-07T00:02:46.702Z,11.28
2018-11-07T00:03:46.679Z,11.20
2018-11-07T00:04:46.591Z,11.31
2018-11-07T00:05:46.619Z,11.25
2018-11-07T00:06:46.582Z,11.25
2018-11-07T00:07:46.631Z,11.31
2018-11-07T00:08:46.545Z,11.37
2018-11-07T00:09:46.585Z,11.30
2018-11-07T00:10:46.536Z,11.43
2018-11-07T00:11:46.553Z,11.34
2018-11-07T00:12:46.500Z,11.34
2018-11-07T00:13:46.490Z,11.43
2018-11-07T00:14:46.482Z,11.43
2018-11-07T00:15:46.514Z,11.33
2018-11-07T00:16:46.478Z,11.46
2018-11-07T00:17:46.494Z,11.45
2018-11-07T00:18:46.436Z,11.45
2018-11-07T00:19:46.433Z,11.48
2018-11-07T00:20:46.433Z,11.40
2018-11-07T00:21:46.514Z,11.43
2018-11-07T00:22:46.391Z,11.40
2018-11-07T00:23:46.424Z,11.45
2018-11-07T00:24:46.374Z,11.43
2018-11-07T00:25:46.432Z,11.48
2018-11-07T00:26:46.356Z,11.37
2018-11-07T00:27:46.619Z,11.37
2018-11-07T00:28:46.362Z,11.38
2018-11-07T00:29:46.320Z,11.49
2018-11-07T00:30:46.308Z,11.41
2018-11-07T00:31:46.339Z,11.43
2018-11-07T00:32:46.286Z,11.40
2018-11-07T00:33:46.327Z,11.40
2018-11-07T00:34:46.270Z,11.30
2018-11-07T00:35:46.265Z,11.33
2018-11-07T00:36:46.249Z,11.23
2018-11-07T00:37:46.231Z,11.34
2018-11-07T00:38:46.227Z,11.19
2018-11-07T00:39:46.245Z,11.22
2018-11-07T00:40:46.201Z,11.11
2018-11-07T00:41:46.184Z,11.09
2018-11-07T00:42:46.181Z,11.08
2018-11-07T00:43:46.164Z,11.04
2018-11-07T00:44:46.178Z,11.01
2018-11-07T00:45:46.177Z,11.11
2018-11-07T00:46:46.145Z,11.03
2018-11-07T00:47:46.126Z,11.00
2018-11-07T00:48:46.114Z,11.00
2018-11-07T00:49:46.100Z,10.91
2018-11-07T00:50:46.093Z,10.94
2018-11-07T00:51:46.192Z,10.91
2018-11-07T00:52:46.074Z,10.76
2018-11-07T00:53:46.056Z,10.82
2018-11-07T00:54:46.047Z,10.80
2018-11-07T00:55:46.033Z,10.70
2018-11-07T00:56:46.033Z,10.73
2018-11-07T00:57:46.056Z,10.67
2018-11-07T00:58:46.008Z,10.64
2018-11-07T00:59:45.995Z,10.65
2018-11-07T01:00:45.996Z,10.70
2018-11-07T01:01:45.979Z,10.62
2018-11-07T01:02:45.972Z,10.65
2018-11-07T01:03:46.001Z,10.62
2018-11-07T01:04:45.941Z,10.80
2018-11-07T01:05:45.925Z,10.87
2018-11-07T01:06:45.917Z,10.95
2018-11-07T01:07:45.921Z,10.94
2018-11-07T01:08:45.892Z,10.95
2018-11-07T01:09:45.922Z,10.94
2018-11-07T01:10:45.869Z,11.03
2018-11-07T01:11:45.870Z,11.01
2018-11-07T01:12:45.862Z,10.94
2018-11-07T01:13:45.887Z,11.00
2018-11-07T01:14:45.846Z,10.93
2018-11-07T01:15:46.110Z,10.85
2018-11-07T01:16:45.932Z,10.86
2018-11-07T01:17:45.796Z,10.91
2018-11-07T01:18:45.787Z,10.82
2018-11-07T01:19:45.773Z,10.83
2018-11-07T01:20:45.770Z,10.86
2018-11-07T01:21:45.803Z,10.82
2018-11-07T01:22:45.757Z,10.76
2018-11-07T01:23:45.734Z,10.86
2018-11-07T01:24:45.724Z,10.90
2018-11-07T01:25:45.738Z,10.94
2018-11-07T01:26:45.728Z,11.00
2018-11-07T01:27:45.751Z,10.98
2018-11-07T01:28:45.681Z,11.00
2018-11-07T01:29:45.665Z,11.03
2018-11-07T01:30:45.660Z,11.11
2018-11-07T01:31:45.644Z,11.09
2018-11-07T01:32:45.632Z,11.19
2018-11-07T01:33:45.664Z,11.05
2018-11-07T01:34:45.609Z,11.19
2018-11-07T01:35:45.637Z,11.27
2018-11-07T01:36:45.613Z,11.20
2018-11-07T01:37:45.581Z,11.09
2018-11-07T01:38:45.571Z,11.12
2018-11-07T01:39:45.619Z,11.00
2018-11-07T01:40:45.545Z,10.93
2018-11-07T01:41:45.569Z,10.91
2018-11-07T01:42:45.522Z,10.90
2018-11-07T01:43:45.512Z,10.85
2018-11-07T01:44:45.506Z,10.79
2018-11-07T01:45:45.529Z,10.80
2018-11-07T01:46:45.475Z,10.80
2018-11-07T01:47:45.469Z,10.79
2018-11-07T01:48:45.460Z,10.79
2018-11-07T01:49:45.445Z,10.75
2018-11-07T01:50:45.439Z,10.76
2018-11-07T01:51:45.635Z,10.70
2018-11-07T01:52:45.413Z,10.65
2018-11-07T01:53:45.404Z,10.64
2018-11-07T01:54:45.398Z,10.78
2018-11-07T01:55:45.379Z,10.76
2018-11-07T01:56:45.371Z,10.79
2018-11-07T01:57:45.425Z,10.79
2018-11-07T01:58:45.360Z,10.80
2018-11-07T01:59:45.373Z,10.79
2018-11-07T02:00:45.333Z,10.86
2018-11-07T02:01:45.335Z,10.93
2018-11-07T02:02:45.310Z,10.75
2018-11-07T02:03:45.344Z,10.87
2018-11-07T02:04:45.287Z,10.76
2018-11-07T02:05:45.303Z,10.83
2018-11-07T02:06:45.264Z,10.78
2018-11-07T02:07:45.252Z,10.76
2018-11-07T02:08:45.245Z,10.73
2018-11-07T02:09:45.282Z,10.76
2018-11-07T02:10:45.228Z,10.78
2018-11-07T02:11:45.210Z,10.75
2018-11-07T02:12:45.205Z,10.80
2018-11-07T02:13:45.195Z,10.93
2018-11-07T02:14:45.182Z,10.83
2018-11-07T02:15:45.195Z,10.93
2018-11-07T02:16:45.153Z,11.08
2018-11-07T02:17:45.157Z,11.08
2018-11-07T02:18:45.135Z,11.16
2018-11-07T02:19:45.119Z,11.08
2018-11-07T02:20:45.106Z,11.08
2018-11-07T02:21:45.157Z,11.01
2018-11-07T02:22:45.136Z,11.03
2018-11-07T02:23:45.092Z,11.00
2018-11-07T02:24:45.082Z,10.90
2018-11-07T02:25:45.052Z,10.91
2018-11-07T02:26:45.041Z,10.78
2018-11-07T02:27:45.081Z,10.75
2018-11-07T02:28:45.025Z,10.80
2018-11-07T02:29:45.017Z,10.80
2018-11-07T02:30:44.993Z,10.64
2018-11-07T02:31:44.989Z,10.75
2018-11-07T02:32:44.978Z,10.73
2018-11-07T02:33:44.997Z,10.76
2018-11-07T02:34:44.958Z,10.75
2018-11-07T02:35:44.944Z,10.70
2018-11-07T02:36:44.965Z,10.79
2018-11-07T02:37:44.923Z,10.76
2018-11-07T02:38:44.912Z,10.85
2018-11-07T02:39:44.946Z,10.78
2018-11-07T02:40:44.886Z,10.80
2018-11-07T02:41:45.061Z,10.83
2018-11-07T02:42:44.869Z,10.79
2018-11-07T02:43:44.871Z,10.75
2018-11-07T02:44:44.852Z,10.73
2018-11-07T02:45:44.923Z,10.64
2018-11-07T02:46:44.841Z,10.64
2018-11-07T02:47:44.832Z,10.67
2018-11-07T02:48:44.806Z,10.73
2018-11-07T02:49:44.807Z,10.64
2018-11-07T02:50:44.782Z,10.61
2018-11-07T02:51:44.827Z,10.57
2018-11-07T02:52:44.764Z,10.58
2018-11-07T02:53:44.748Z,10.52
2018-11-07T02:54:44.741Z,10.64
2018-11-07T02:55:44.731Z,10.57
2018-11-07T02:56:44.725Z,10.52
2018-11-07T02:57:44.743Z,10.57
2018-11-07T02:58:44.728Z,10.49
2018-11-07T02:59:44.756Z,10.55
2018-11-07T03:00:44.686Z,10.48
2018-11-07T03:01:44.661Z,10.48
2018-11-07T03:02:44.692Z,10.45
2018-11-07T03:03:44.696Z,10.48
2018-11-07T03:04:44.636Z,10.43
2018-11-07T03:05:44.626Z,10.41
2018-11-07T03:06:44.614Z,10.38
2018-11-07T03:07:44.599Z,10.42
2018-11-07T03:08:44.587Z,10.41
2018-11-07T03:09:44.635Z,10.43
2018-11-07T03:10:44.665Z,10.36
2018-11-07T03:11:44.556Z,10.39
2018-11-07T03:12:44.540Z,10.39
2018-11-07T03:13:44.529Z,10.36
2018-11-07T03:14:44.536Z,10.39
2018-11-07T03:15:44.589Z,10.41
2018-11-07T03:16:44.524Z,10.39
2018-11-07T03:17:44.492Z,10.35
2018-11-07T03:18:44.477Z,10.34
2018-11-07T03:19:44.464Z,10.34
2018-11-07T03:20:44.457Z,10.36
2018-11-07T03:21:44.476Z,10.41
2018-11-07T03:22:44.463Z,10.35
2018-11-07T03:23:44.420Z,10.46
2018-11-07T03:24:44.407Z,10.43
2018-11-07T03:25:44.413Z,10.35
2018-11-07T03:26:44.392Z,10.41
2018-11-07T03:27:44.422Z,10.35
2018-11-07T03:28:44.379Z,10.30
2018-11-07T03:29:44.400Z,10.31
2018-11-07T03:30:44.351Z,10.28
2018-11-07T03:31:44.341Z,10.30
2018-11-07T03:32:44.322Z,10.28
2018-11-07T03:33:44.350Z,10.28
2018-11-07T03:34:44.305Z,10.21
2018-11-07T03:35:44.297Z,10.23
2018-11-07T03:36:44.298Z,10.34
2018-11-07T03:37:44.272Z,10.34
2018-11-07T03:38:44.262Z,10.20
2018-11-07T03:39:44.405Z,10.23
2018-11-07T03:40:44.247Z,10.24
2018-11-07T03:41:44.225Z,10.20
2018-11-07T03:42:44.218Z,10.20
2018-11-07T03:43:44.248Z,10.26
2018-11-07T03:44:44.198Z,10.23
2018-11-07T03:45:44.230Z,10.18
2018-11-07T03:46:44.192Z,10.09
2018-11-07T03:47:44.164Z,10.14
2018-11-07T03:48:44.158Z,10.18
2018-11-07T03:49:44.144Z,10.12
2018-11-07T03:50:44.127Z,10.10
2018-11-07T03:51:44.342Z,10.12
2018-11-07T03:52:44.121Z,9.99
2018-11-07T03:53:44.106Z,9.99
2018-11-07T03:54:44.087Z,10.03
2018-11-07T03:55:44.073Z,9.93
2018-11-07T03:56:44.062Z,9.96
2018-11-07T03:57:44.105Z,10.03
2018-11-07T03:58:44.044Z,10.02
2018-11-07T03:59:44.033Z,9.98
2018-11-07T04:00:44.028Z,9.90
2018-11-07T04:01:44.017Z,9.88
2018-11-07T04:02:44.026Z,9.78
2018-11-07T04:03:44.035Z,9.73
2018-11-07T04:04:43.982Z,9.65
2018-11-07T04:05:43.973Z,9.69
2018-11-07T04:06:43.956Z,9.57
2018-11-07T04:07:43.960Z,9.65
2018-11-07T04:08:43.934Z,9.47
2018-11-07T04:09:43.963Z,9.44
2018-11-07T04:10:43.906Z,9.33
2018-11-07T04:11:43.906Z,9.33
2018-11-07T04:12:43.885Z,9.24
2018-11-07T04:13:43.879Z,9.16
2018-11-07T04:14:43.876Z,9.12
2018-11-07T04:15:43.898Z,9.11
2018-11-07T04:16:43.841Z,9.06
2018-11-07T04:17:43.831Z,8.98
2018-11-07T04:18:43.832Z,8.99
2018-11-07T04:19:43.813Z,8.90
2018-11-07T04:20:43.826Z,8.96
2018-11-07T04:21:43.836Z,8.90
2018-11-07T04:22:43.806Z,8.90
2018-11-07T04:23:43.773Z,8.93
2018-11-07T04:24:43.766Z,8.85
2018-11-07T04:25:43.743Z,8.86
2018-11-07T04:26:43.741Z,8.80
2018-11-07T04:27:43.774Z,8.81
2018-11-07T04:28:43.722Z,8.80
2018-11-07T04:29:43.708Z,8.72
2018-11-07T04:30:43.689Z,8.65
2018-11-07T04:31:43.680Z,8.60
2018-11-07T04:32:43.667Z,8.56
2018-11-07T04:33:43.707Z,8.59
2018-11-07T04:34:43.674Z,8.55
2018-11-07T04:35:43.634Z,8.49
2018-11-07T04:36:43.626Z,8.49
2018-11-07T04:37:43.615Z,8.42
2018-11-07T04:38:43.610Z,8.44
2018-11-07T04:39:43.632Z,8.31
2018-11-07T04:40:43.629Z,8.39
2018-11-07T04:41:43.600Z,8.32
2018-11-07T04:42:43.560Z,8.37
2018-11-07T04:43:43.547Z,8.34
2018-11-07T04:44:43.539Z,8.31
2018-11-07T04:45:43.692Z,8.28
2018-11-07T04:46:43.512Z,8.29
2018-11-07T04:47:43.507Z,8.14
2018-11-07T04:48:43.519Z,8.19
2018-11-07T04:49:43.487Z,8.14
2018-11-07T04:50:43.480Z,8.16
2018-11-07T04:51:43.491Z,8.12
2018-11-07T04:52:43.460Z,8.12
2018-11-07T04:53:43.448Z,8.16
2018-11-07T04:54:43.430Z,8.14
2018-11-07T04:55:43.417Z,8.17
2018-11-07T04:56:43.411Z,8.13
2018-11-07T04:57:43.481Z,8.29
2018-11-07T04:58:43.387Z,8.47
2018-11-07T04:59:43.381Z,8.56
2018-11-07T05:00:43.369Z,8.70
2018-11-07T05:01:43.399Z,8.89
2018-11-07T05:02:43.342Z,8.96
2018-11-07T05:03:43.524Z,8.96
2018-11-07T05:04:43.325Z,9.06
2018-11-07T05:05:43.312Z,9.09
2018-11-07T05:06:43.300Z,9.14
2018-11-07T05:07:43.310Z,9.30
2018-11-07T05:08:43.338Z,9.36
2018-11-07T05:09:43.315Z,9.42
2018-11-07T05:10:43.252Z,9.48
2018-11-07T05:11:43.247Z,9.41
2018-11-07T05:12:43.230Z,9.47
2018-11-07T05:13:43.228Z,9.47
2018-11-07T05:14:43.223Z,9.40
2018-11-07T05:15:43.253Z,9.40
2018-11-07T05:16:43.193Z,9.42
2018-11-07T05:17:43.182Z,9.41
2018-11-07T05:18:43.168Z,9.44
2018-11-07T05:19:43.193Z,9.41
2018-11-07T05:20:43.151Z,9.44
2018-11-07T05:21:43.174Z,9.44
2018-11-07T05:22:43.122Z,9.37
2018-11-07T05:23:43.112Z,9.29
2018-11-07T05:24:43.120Z,9.27
2018-11-07T05:25:43.095Z,9.26
2018-11-07T05:26:43.088Z,9.29
2018-11-07T05:27:43.124Z,9.27
2018-11-07T05:28:43.065Z,9.32
2018-11-07T05:29:43.047Z,9.30
2018-11-07T05:30:43.053Z,9.26
2018-11-07T05:31:43.026Z,9.26
2018-11-07T05:32:43.014Z,9.19
2018-11-07T05:33:43.085Z,9.09
2018-11-07T05:34:43.001Z,9.14
2018-11-07T05:35:42.979Z,9.14
2018-11-07T05:36:42.972Z,9.18
2018-11-07T05:37:42.961Z,9.04
2018-11-07T05:38:42.947Z,9.06
2018-11-07T05:39:42.969Z,9.03
2018-11-07T05:40:42.948Z,9.09
2018-11-07T05:41:42.921Z,9.04
2018-11-07T05:42:42.910Z,9.08
2018-11-07T05:43:42.897Z,9.15
2018-11-07T05:44:42.886Z,9.14
2018-11-07T05:45:43.034Z,9.04
2018-11-07T05:46:42.853Z,9.14
2018-11-07T05:47:42.853Z,9.06
2018-11-07T05:48:42.851Z,9.09
2018-11-07T05:49:42.823Z,9.22
2018-11-07T05:50:42.813Z,9.29
2018-11-07T05:51:42.869Z,9.27
2018-11-07T05:52:42.800Z,9.44
2018-11-07T05:53:42.781Z,9.41
2018-11-07T05:54:42.768Z,9.44
2018-11-07T05:55:42.757Z,9.42
2018-11-07T05:56:42.759Z,9.42
2018-11-07T05:57:42.793Z,9.44
2018-11-07T05:58:42.723Z,9.44
2018-11-07T05:59:42.713Z,9.42
2018-11-07T06:00:42.703Z,9.45
2018-11-07T06:01:42.699Z,9.45
2018-11-07T06:02:42.690Z,9.33
2018-11-07T06:03:42.723Z,9.40
2018-11-07T06:04:42.667Z,9.50
2018-11-07T06:05:42.648Z,9.42
2018-11-07T06:06:42.669Z,9.44
2018-11-07T06:07:42.624Z,9.57
2018-11-07T06:08:42.617Z,9.52
2018-11-07T06:09:42.661Z,9.54
2018-11-07T06:10:42.594Z,9.60
2018-11-07T06:11:42.588Z,9.52
2018-11-07T06:12:42.578Z,9.51
2018-11-07T06:13:42.564Z,9.62
2018-11-07T06:14:42.556Z,9.65
2018-11-07T06:15:42.598Z,9.65
2018-11-07T06:16:42.528Z,9.66
2018-11-07T06:17:42.515Z,9.85
2018-11-07T06:18:42.506Z,9.84
2018-11-07T06:19:42.492Z,9.83
2018-11-07T06:20:42.487Z,9.80
2018-11-07T06:21:42.532Z,9.75
2018-11-07T06:22:42.460Z,9.77
2018-11-07T06:23:42.451Z,9.91
2018-11-07T06:24:42.500Z,9.90
2018-11-07T06:25:42.428Z,9.78
2018-11-07T06:26:42.417Z,9.81
2018-11-07T06:27:42.527Z,9.81
2018-11-07T06:28:42.394Z,9.78
2018-11-07T06:29:42.386Z,9.81
2018-11-07T06:30:42.423Z,9.73
2018-11-07T06:31:42.366Z,9.80
2018-11-07T06:32:42.351Z,9.70
2018-11-07T06:33:42.437Z,9.73
2018-11-07T06:34:42.328Z,9.66
2018-11-07T06:35:42.316Z,9.67
2018-11-07T06:36:42.326Z,9.60
2018-11-07T06:37:42.296Z,9.62
2018-11-07T06:38:42.332Z,9.63
2018-11-07T06:39:42.324Z,9.80
2018-11-07T06:40:42.275Z,9.77
2018-11-07T06:41:42.269Z,9.78
2018-11-07T06:42:42.240Z,9.70
2018-11-07T06:43:42.234Z,9.78
2018-11-07T06:44:42.242Z,9.93
2018-11-07T06:45:42.283Z,9.88
2018-11-07T06:46:42.198Z,9.98
2018-11-07T06:47:42.187Z,9.91
2018-11-07T06:48:42.200Z,9.88
2018-11-07T06:49:42.185Z,9.88
2018-11-07T06:50:42.209Z,9.88
2018-11-07T06:51:42.174Z,9.93
2018-11-07T06:52:42.156Z,9.98
2018-11-07T06:53:42.144Z,9.93
2018-11-07T06:54:42.133Z,9.96
2018-11-07T06:55:42.160Z,9.98
2018-11-07T06:56:42.101Z,9.96
2018-11-07T06:57:42.183Z,9.91
2018-11-07T06:58:42.075Z,10.03
2018-11-07T06:59:42.073Z,10.03
2018-11-07T07:00:42.069Z,10.06
2018-11-07T07:01:42.077Z,10.03
2018-11-07T07:02:42.072Z,10.02
2018-11-07T07:03:42.069Z,9.98
2018-11-07T07:04:42.014Z,10.06
2018-11-07T07:05:42.034Z,10.16
2018-11-07T07:06:42.018Z,10.28
2018-11-07T07:07:41.985Z,10.30
2018-11-07T07:08:41.967Z,10.24
2018-11-07T07:09:41.985Z,10.30
2018-11-07T07:10:41.933Z,10.34
2018-11-07T07:11:41.925Z,10.39
2018-11-07T07:12:41.930Z,10.39
2018-11-07T07:13:41.902Z,10.43
2018-11-07T07:14:41.896Z,10.54
2018-11-07T07:15:41.921Z,10.57
2018-11-07T07:16:41.940Z,10.58
2018-11-07T07:17:41.977Z,10.49
2018-11-07T07:18:41.902Z,10.49
2018-11-07T07:19:41.836Z,10.48
2018-11-07T07:20:41.832Z,10.55
2018-11-07T07:21:41.864Z,10.55
2018-11-07T07:22:41.806Z,10.68
2018-11-07T07:23:41.792Z,10.67
2018-11-07T07:24:41.803Z,10.70
2018-11-07T07:25:41.878Z,10.76
2018-11-07T07:26:41.765Z,10.76
2018-11-07T07:27:41.794Z,10.67
2018-11-07T07:28:41.766Z,10.78
2018-11-07T07:29:41.766Z,10.73
2018-11-07T07:30:41.718Z,10.83
2018-11-07T07:31:41.709Z,10.78
2018-11-07T07:32:41.694Z,10.79
2018-11-07T07:33:41.808Z,10.73
2018-11-07T07:34:41.675Z,10.83
2018-11-07T07:35:41.662Z,10.83
2018-11-07T07:36:41.654Z,10.79
2018-11-07T07:37:41.654Z,10.80
2018-11-07T07:38:41.636Z,10.80
2018-11-07T07:39:41.752Z,10.83
2018-11-07T07:40:41.610Z,10.87
2018-11-07T07:41:41.600Z,10.93
2018-11-07T07:42:41.591Z,11.00
2018-11-07T07:43:41.572Z,10.98
2018-11-07T07:44:41.567Z,11.01
2018-11-07T07:45:41.697Z,11.05
2018-11-07T07:46:41.575Z,11.01
2018-11-07T07:47:41.545Z,11.04
2018-11-07T07:48:41.524Z,11.05
2018-11-07T07:49:41.515Z,11.11
2018-11-07T07:50:41.496Z,11.13
2018-11-07T07:51:41.700Z,11.20
2018-11-07T07:52:41.482Z,11.23
2018-11-07T07:53:41.468Z,11.25
2018-11-07T07:54:41.474Z,11.20
2018-11-07T07:55:41.445Z,11.23
2018-11-07T07:56:41.437Z,11.43
2018-11-07T07:57:41.471Z,11.37
2018-11-07T07:58:41.423Z,11.45
2018-11-07T07:59:41.403Z,11.45
2018-11-07T08:00:41.388Z,11.43
2018-11-07T08:01:41.398Z,11.49
2018-11-07T08:02:41.367Z,11.51
2018-11-07T08:03:41.411Z,11.51
2018-11-07T08:04:41.352Z,11.52
2018-11-07T08:05:41.339Z,11.54
2018-11-07T08:06:41.335Z,11.64
2018-11-07T08:07:41.335Z,11.67
2018-11-07T08:08:41.310Z,11.71
2018-11-07T08:09:41.333Z,11.69
2018-11-07T08:10:41.293Z,11.69
2018-11-07T08:11:41.276Z,11.76
2018-11-07T08:12:41.267Z,11.84
2018-11-07T08:13:41.393Z,11.79
2018-11-07T08:14:41.244Z,11.79
2018-11-07T08:15:41.283Z,11.84
2018-11-07T08:16:41.232Z,11.93
2018-11-07T08:17:41.207Z,11.96
2018-11-07T08:18:41.200Z,11.97
2018-11-07T08:19:41.210Z,11.97
2018-11-07T08:20:41.177Z,11.93
2018-11-07T08:21:41.240Z,11.95
2018-11-07T08:22:41.152Z,11.93
2018-11-07T08:23:41.144Z,11.99
2018-11-07T08:24:41.134Z,11.95
2018-11-07T08:25:41.130Z,12.08
2018-11-07T08:26:41.113Z,11.93
2018-11-07T08:27:41.162Z,12.05
2018-11-07T08:28:41.085Z,12.07
2018-11-07T08:29:41.081Z,12.10
2018-11-07T08:30:41.126Z,12.14
2018-11-07T08:31:41.068Z,12.21
2018-11-07T08:32:41.058Z,12.32
2018-11-07T08:33:41.090Z,12.32
2018-11-07T08:34:41.044Z,12.40
2018-11-07T08:35:41.013Z,12.38
2018-11-07T08:36:40.998Z,12.43
2018-11-07T08:37:40.992Z,12.40
2018-11-07T08:38:40.983Z,12.38
2018-11-07T08:39:41.019Z,12.44
2018-11-07T08:40:40.961Z,12.53
2018-11-07T08:41:40.966Z,12.44
2018-11-07T08:42:40.935Z,12.58
2018-11-07T08:43:40.929Z,12.59
2018-11-07T08:44:40.916Z,12.53
2018-11-07T08:45:40.932Z,12.63
2018-11-07T08:46:40.896Z,12.65
2018-11-07T08:47:40.895Z,12.61
2018-11-07T08:48:40.878Z,12.63
2018-11-07T08:49:40.872Z,12.69
2018-11-07T08:50:40.848Z,12.69
2018-11-07T08:51:40.900Z,12.77
2018-11-07T08:52:40.827Z,12.86
2018-11-07T08:53:40.819Z,12.79
2018-11-07T08:54:40.816Z,12.81
2018-11-07T08:55:40.794Z,12.80
2018-11-07T08:56:40.789Z,12.87
2018-11-07T08:57:40.853Z,12.91
2018-11-07T08:58:40.765Z,12.96
2018-11-07T08:59:40.749Z,12.98
2018-11-07T09:00:40.739Z,13.06
2018-11-07T09:01:40.746Z,13.01
2018-11-07T09:02:40.717Z,13.09
2018-11-07T09:03:40.774Z,13.16
2018-11-07T09:04:40.705Z,13.17
2018-11-07T09:05:40.689Z,13.14
2018-11-07T09:06:40.679Z,13.29
2018-11-07T09:07:40.663Z,13.40
2018-11-07T09:08:40.663Z,13.35
2018-11-07T09:09:40.682Z,13.49
2018-11-07T09:10:40.629Z,13.55
2018-11-07T09:11:40.615Z,13.51
2018-11-07T09:12:40.621Z,13.53
2018-11-07T09:13:40.629Z,13.49
2018-11-07T09:14:40.581Z,13.49
2018-11-07T09:15:40.622Z,13.45
2018-11-07T09:16:40.566Z,13.46
2018-11-07T09:17:40.548Z,13.42
2018-11-07T09:18:40.543Z,13.42
2018-11-07T09:19:40.573Z,13.29
2018-11-07T09:20:40.522Z,13.26
2018-11-07T09:21:40.561Z,13.29
2018-11-07T09:22:40.495Z,13.27
2018-11-07T09:23:40.493Z,13.43
2018-11-07T09:24:40.472Z,13.30
2018-11-07T09:25:40.457Z,13.43
2018-11-07T09:26:40.455Z,13.54
2018-11-07T09:27:40.504Z,13.47
2018-11-07T09:28:40.427Z,13.60
2018-11-07T09:29:40.413Z,13.53
2018-11-07T09:30:40.411Z,13.65
2018-11-07T09:31:40.398Z,13.63
2018-11-07T09:32:40.380Z,13.78
2018-11-07T09:33:40.425Z,13.83
2018-11-07T09:34:40.366Z,13.93
2018-11-07T09:35:40.359Z,13.91
2018-11-07T09:36:40.334Z,14.09
2018-11-07T09:37:40.327Z,14.05
2018-11-07T09:38:40.312Z,14.16
2018-11-07T09:39:40.400Z,14.08
2018-11-07T09:40:40.298Z,14.21
2018-11-07T09:41:40.284Z,14.19
2018-11-07T09:42:40.275Z,14.22
2018-11-07T09:43:40.259Z,14.31
2018-11-07T09:44:40.250Z,14.37
2018-11-07T09:45:40.290Z,14.48
2018-11-07T09:46:40.225Z,14.41
2018-11-07T09:47:40.226Z,14.45
2018-11-07T09:48:40.207Z,14.51
2018-11-07T09:49:40.193Z,14.59
2018-11-07T09:50:40.186Z,14.55
2018-11-07T09:51:40.253Z,14.69
2018-11-07T09:52:40.159Z,14.74
2018-11-07T09:53:40.199Z,14.71
2018-11-07T09:54:40.143Z,14.69
2018-11-07T09:55:40.130Z,14.78
2018-11-07T09:56:40.120Z,14.69
2018-11-07T09:57:40.180Z,14.69
2018-11-07T09:58:40.101Z,14.71
2018-11-07T09:59:40.094Z,14.73
2018-11-07T10:00:40.076Z,14.79
2018-11-07T10:01:40.062Z,14.89
2018-11-07T10:02:40.053Z,14.95
2018-11-07T10:03:40.116Z,14.96
2018-11-07T10:04:40.041Z,15.04
2018-11-07T10:05:40.103Z,15.05
2018-11-07T10:06:40.083Z,15.10
2018-11-07T10:07:40.019Z,15.15
2018-11-07T10:08:39.984Z,15.11
2018-11-07T10:09:40.040Z,15.14
2018-11-07T10:10:39.987Z,15.17
2018-11-07T10:11:39.953Z,15.15
2018-11-07T10:12:40.043Z,15.23
2018-11-07T10:13:39.932Z,15.30
2018-11-07T10:14:39.915Z,15.23
2018-11-07T10:15:39.939Z,15.30
2018-11-07T10:16:39.941Z,15.43
2018-11-07T10:17:39.890Z,15.41
2018-11-07T10:18:39.875Z,15.51
2018-11-07T10:19:39.863Z,15.47
2018-11-07T10:20:39.957Z,15.52
2018-11-07T10:21:39.930Z,15.44
2018-11-07T10:22:39.840Z,15.40
2018-11-07T10:23:39.836Z,15.29
2018-11-07T10:24:39.809Z,15.36
2018-11-07T10:25:39.803Z,15.36
2018-11-07T10:26:39.894Z,15.40
2018-11-07T10:27:40.264Z,15.43
2018-11-07T10:28:39.932Z,15.51
2018-11-07T10:29:40.046Z,15.62
2018-11-07T10:30:39.749Z,15.68
2018-11-07T10:31:39.733Z,15.72
2018-11-07T10:32:39.722Z,15.72
2018-11-07T10:33:39.766Z,15.68
2018-11-07T10:34:39.738Z,15.69
2018-11-07T10:35:39.696Z,15.72
2018-11-07T10:36:39.697Z,15.81
2018-11-07T10:37:39.712Z,15.81
2018-11-07T10:38:39.810Z,15.87
2018-11-07T10:39:39.753Z,15.88
2018-11-07T10:40:39.661Z,15.96
2018-11-07T10:41:39.621Z,15.91
2018-11-07T10:42:39.639Z,15.98
2018-11-07T10:43:39.657Z,15.98
2018-11-07T10:44:39.594Z,16.03
2018-11-07T10:45:39.629Z,16.02
2018-11-07T10:46:39.582Z,15.98
2018-11-07T10:47:39.568Z,16.02
2018-11-07T10:48:39.550Z,16.09
2018-11-07T10:49:39.541Z,16.08
2018-11-07T10:50:39.533Z,16.16
2018-11-07T10:51:39.595Z,16.10
2018-11-07T10:52:39.505Z,16.16
2018-11-07T10:53:39.501Z,16.14
2018-11-07T10:54:39.489Z,16.22
2018-11-07T10:55:39.487Z,16.25
2018-11-07T10:56:39.464Z,16.33
2018-11-07T10:57:39.495Z,16.29
2018-11-07T10:58:39.456Z,16.22
2018-11-07T10:59:39.430Z,16.22
2018-11-07T11:00:39.423Z,16.13
2018-11-07T11:01:39.415Z,16.13
2018-11-07T11:02:39.394Z,16.06
2018-11-07T11:03:39.439Z,16.14
2018-11-07T11:04:39.381Z,15.99
2018-11-07T11:05:39.362Z,16.00
2018-11-07T11:06:39.367Z,15.90
2018-11-07T11:07:39.345Z,15.83
2018-11-07T11:08:39.337Z,15.83
2018-11-07T11:09:39.367Z,15.73
2018-11-07T11:10:39.337Z,15.81
2018-11-07T11:11:39.297Z,15.76
2018-11-07T11:12:39.291Z,15.85
2018-11-07T11:13:39.276Z,15.69
2018-11-07T11:14:39.273Z,15.76
2018-11-07T11:15:39.313Z,15.76
2018-11-07T11:16:39.273Z,15.76
2018-11-07T11:17:39.253Z,15.69
2018-11-07T11:18:39.222Z,15.72
2018-11-07T11:19:39.208Z,15.68
2018-11-07T11:20:39.215Z,15.68
2018-11-07T11:21:39.248Z,15.66
2018-11-07T11:22:39.182Z,15.51
2018-11-07T11:23:39.169Z,15.52
2018-11-07T11:24:39.169Z,15.56
2018-11-07T11:25:39.185Z,15.51
2018-11-07T11:26:39.144Z,15.65
2018-11-07T11:27:39.171Z,15.60
2018-11-07T11:28:39.114Z,15.54
2018-11-07T11:29:39.101Z,15.41
2018-11-07T11:30:39.108Z,15.44
2018-11-07T11:31:39.093Z,15.62
2018-11-07T11:32:39.231Z,15.50
2018-11-07T11:33:39.125Z,15.48
2018-11-07T11:34:39.152Z,15.65
2018-11-07T11:35:39.035Z,15.50
2018-11-07T11:36:39.042Z,15.48
2018-11-07T11:37:39.013Z,15.63
2018-11-07T11:38:39.008Z,15.65
2018-11-07T11:39:39.019Z,15.60
2018-11-07T11:40:39.066Z,15.60
2018-11-07T11:41:38.982Z,15.69
2018-11-07T11:42:38.954Z,15.65
2018-11-07T11:43:38.945Z,15.73
2018-11-07T11:44:38.932Z,15.78
2018-11-07T11:45:38.951Z,15.81
2018-11-07T11:46:38.928Z,15.81
2018-11-07T11:47:38.921Z,15.81
2018-11-07T11:48:38.890Z,15.78
2018-11-07T11:49:38.884Z,15.77
2018-11-07T11:50:38.870Z,15.91
2018-11-07T11:51:38.922Z,15.83
2018-11-07T11:52:38.852Z,15.73
2018-11-07T11:53:38.859Z,15.83
2018-11-07T11:54:38.826Z,15.83
2018-11-07T11:55:38.815Z,15.77
2018-11-07T11:56:38.825Z,15.80
2018-11-07T11:57:38.854Z,15.80
2018-11-07T11:58:38.805Z,15.85
2018-11-07T11:59:39.024Z,15.83
2018-11-07T12:00:38.758Z,15.80
2018-11-07T12:01:38.749Z,15.77
2018-11-07T12:02:38.770Z,15.81
2018-11-07T12:03:38.784Z,15.69
2018-11-07T12:04:38.714Z,15.84
2018-11-07T12:05:38.706Z,15.84
2018-11-07T12:06:38.703Z,15.80
2018-11-07T12:07:38.681Z,15.81
2018-11-07T12:08:38.719Z,15.72
2018-11-07T12:09:38.732Z,15.83
2018-11-07T12:10:38.652Z,15.83
2018-11-07T12:11:38.641Z,15.78
2018-11-07T12:12:38.629Z,15.72
2018-11-07T12:13:38.620Z,15.70
2018-11-07T12:14:38.611Z,15.73
2018-11-07T12:15:38.673Z,15.69
2018-11-07T12:16:38.585Z,15.72
2018-11-07T12:17:38.620Z,15.70
2018-11-07T12:18:38.565Z,15.60
2018-11-07T12:19:38.551Z,15.72
2018-11-07T12:20:38.542Z,15.72
2018-11-07T12:21:38.749Z,15.81
2018-11-07T12:22:38.520Z,15.73
2018-11-07T12:23:38.508Z,15.81
2018-11-07T12:24:38.506Z,15.70
2018-11-07T12:25:38.487Z,15.62
2018-11-07T12:26:38.490Z,15.68
2018-11-07T12:27:38.517Z,15.70
2018-11-07T12:28:38.465Z,15.70
2018-11-07T12:29:38.465Z,15.73
2018-11-07T12:30:38.429Z,15.73
2018-11-07T12:31:38.419Z,15.72
2018-11-07T12:32:38.413Z,15.72
2018-11-07T12:33:38.438Z,15.80
2018-11-07T12:34:38.394Z,15.72
2018-11-07T12:35:38.375Z,15.73
2018-11-07T12:36:38.369Z,15.68
2018-11-07T12:37:38.354Z,15.73
2018-11-07T12:38:38.343Z,15.70
2018-11-07T12:39:38.383Z,15.62
2018-11-07T12:40:38.346Z,15.78
2018-11-07T12:41:38.310Z,15.68
2018-11-07T12:42:38.342Z,15.69
2018-11-07T12:43:38.293Z,15.73
2018-11-07T12:44:38.283Z,15.72
2018-11-07T12:45:38.318Z,15.68
2018-11-07T12:46:38.273Z,15.68
2018-11-07T12:47:38.247Z,15.72
2018-11-07T12:48:38.245Z,15.68
2018-11-07T12:49:38.311Z,15.68
2018-11-07T12:50:38.217Z,15.68
2018-11-07T12:51:38.250Z,15.68
2018-11-07T12:52:38.222Z,15.69
2018-11-07T12:53:38.189Z,15.68
2018-11-07T12:54:38.182Z,15.72
2018-11-07T12:55:38.163Z,15.72
2018-11-07T12:56:38.147Z,15.73
2018-11-07T12:57:38.262Z,15.65
2018-11-07T12:58:38.130Z,15.69